Millau, France

2:09 AM CET on February 14, 2016 (GMT +0100)
Aigoual | | Change Station
CLOSE
Current Station
Personal Weather Station
Location: Meyrueis, LOZERE
Elevation: 2398 ft
Nearby Weather Stations

Elev 2398 ft 44.18 °N, 3.43 °E | Updated 2 minutes ago

Light Rain
Light Rain
40.8 °F
Feels Like 41 °F
N
0.0
Wind Variable Wind from SE
Gusts 0.0 mph

Today
High -- | Low -- °F
--% Chance of Precip.
Yesterday
High -- | Low -- °F
Precip. -- in
Pressure 29.30 in
Visibility 6.2 miles
Clouds Mostly Cloudy 800 ft
Mostly Cloudy 3900 ft
Overcast 5200 ft
Windchill 41 °F
Dew Point 38 °F
Humidity 91%
Rainfall 0.00 in
Snow Depth Not available.
7:49 AM 6:15 PM
Waxing Crescent, 36% visible
METAR LFCR 140100Z AUTO 20007KT 9999 -RA BKN008/// BKN039/// OVC052/// ///TCU 07/06 Q0992
Pressure 29.30 in
Visibility 6.2 miles
Clouds Mostly Cloudy 800 ft
Mostly Cloudy 3900 ft
Overcast 5200 ft
Windchill 41 °F
Dew Point 38 °F
Humidity 91%
Rainfall 0.00 in
Snow Depth Not available.
7:49 AM 6:15 PM
Waxing Crescent, 36% visible
METAR LFCR 140100Z AUTO 20007KT 9999 -RA BKN008/// BKN039/// OVC052/// ///TCU 07/06 Q0992

10-Day Weather Forecast

Almanac

Astronomy

Feb. 14, 2016 Rise Set
Actual Time
Civil Twilight
Nautical Twilight
Astronomical Twilight
Moon
Length of Visible Light
Length of Day
Tomorrow will be .
, % of the Moon is Illuminated

Today's Extremes

Country Highs Country Lows

Community

WunderPhotos

Upload Photos

1,892,720 photos uploaded!

WunderBlog® & News

Nearby

Air Quality

  Air Quality AQ Index Pollutant
Not available.

Snow Depth

Station Depth Elevation

Earthquake Activity

City Distance Mag. Time & Date
Minimum magnitude displayed is 2.5.

Coastal Water Temperatures

Place Temperature

Stations

Nearby Weather Stations

Station Location Temp. Windchill Dew Point Humidity Wind Precip. Elev Updated Type